sensor_id;sensor_type;location;lat;lon;timestamp;pressure;altitude;pressure_sealevel;temperature;humidity
12213;BME280;6169;44.158;22.788;2023-09-12T00:02:23;101048.53;;;17.87;53.05
12213;BME280;6169;44.158;22.788;2023-09-12T00:07:25;101059.81;;;18.76;51.09
12213;BME280;6169;44.158;22.788;2023-09-12T00:12:27;101057.25;;;18.90;50.23
12213;BME280;6169;44.158;22.788;2023-09-12T00:17:31;101045.47;;;18.79;50.40
12213;BME280;6169;44.158;22.788;2023-09-12T00:22:33;101057.59;;;18.83;50.18
12213;BME280;6169;44.158;22.788;2023-09-12T00:27:35;101063.88;;;18.94;50.02
12213;BME280;6169;44.158;22.788;2023-09-12T00:32:39;101055.09;;;18.87;50.28
12213;BME280;6169;44.158;22.788;2023-09-12T00:37:41;101058.81;;;19.51;48.51
12213;BME280;6169;44.158;22.788;2023-09-12T00:42:43;101058.25;;;19.09;48.26
12213;BME280;6169;44.158;22.788;2023-09-12T00:47:48;101059.91;;;18.50;51.54
12213;BME280;6169;44.158;22.788;2023-09-12T00:52:52;101063.66;;;18.80;50.45
12213;BME280;6169;44.158;22.788;2023-09-12T00:57:55;101067.84;;;18.73;50.74
12213;BME280;6169;44.158;22.788;2023-09-12T01:02:59;101057.63;;;19.23;49.10
12213;BME280;6169;44.158;22.788;2023-09-12T01:08:01;101066.84;;;19.47;48.25
12213;BME280;6169;44.158;22.788;2023-09-12T01:13:05;101071.13;;;18.64;50.68
12213;BME280;6169;44.158;22.788;2023-09-12T01:18:09;101073.50;;;18.21;51.62
12213;BME280;6169;44.158;22.788;2023-09-12T01:23:23;101075.94;;;18.33;52.10
12213;BME280;6169;44.158;22.788;2023-09-12T01:28:34;101080.03;;;18.51;50.83
12213;BME280;6169;44.158;22.788;2023-09-12T01:33:36;101082.16;;;18.59;50.48
12213;BME280;6169;44.158;22.788;2023-09-12T01:38:38;101083.75;;;18.86;49.99
12213;BME280;6169;44.158;22.788;2023-09-12T01:43:43;101072.88;;;18.45;50.71
12213;BME280;6169;44.158;22.788;2023-09-12T01:48:46;101070.16;;;18.40;51.08
12213;BME280;6169;44.158;22.788;2023-09-12T01:53:52;101069.75;;;18.67;50.68
12213;BME280;6169;44.158;22.788;2023-09-12T01:58:57;101076.16;;;18.52;50.66
12213;BME280;6169;44.158;22.788;2023-09-12T02:04:00;101079.13;;;18.66;50.59
12213;BME280;6169;44.158;22.788;2023-09-12T02:09:03;101087.09;;;18.78;50.46
12213;BME280;6169;44.158;22.788;2023-09-12T02:14:06;101086.94;;;19.03;49.60
12213;BME280;6169;44.158;22.788;2023-09-12T02:19:09;101085.22;;;18.63;50.60
12213;BME280;6169;44.158;22.788;2023-09-12T02:24:11;101082.34;;;18.88;49.81
12213;BME280;6169;44.158;22.788;2023-09-12T02:29:14;101082.84;;;18.96;49.19
12213;BME280;6169;44.158;22.788;2023-09-12T02:34:17;101084.88;;;18.80;49.70
12213;BME280;6169;44.158;22.788;2023-09-12T02:39:19;101082.22;;;19.09;49.09
12213;BME280;6169;44.158;22.788;2023-09-12T02:44:22;101080.16;;;19.30;48.19
12213;BME280;6169;44.158;22.788;2023-09-12T02:49:25;101076.88;;;18.78;50.28
12213;BME280;6169;44.158;22.788;2023-09-12T02:54:27;101067.84;;;18.62;50.52
12213;BME280;6169;44.158;22.788;2023-09-12T02:59:31;101066.84;;;18.38;51.42
12213;BME280;6169;44.158;22.788;2023-09-12T03:04:36;101068.63;;;18.68;50.55
12213;BME280;6169;44.158;22.788;2023-09-12T03:09:38;101063.53;;;18.46;50.68
12213;BME280;6169;44.158;22.788;2023-09-12T03:14:41;101064.84;;;18.54;50.03
12213;BME280;6169;44.158;22.788;2023-09-12T03:19:43;101063.97;;;17.47;54.21
12213;BME280;6169;44.158;22.788;2023-09-12T03:24:46;101076.00;;;18.23;51.21
12213;BME280;6169;44.158;22.788;2023-09-12T03:29:49;101072.28;;;18.53;50.73
12213;BME280;6169;44.158;22.788;2023-09-12T03:34:51;101085.25;;;18.53;50.66
12213;BME280;6169;44.158;22.788;2023-09-12T03:39:54;101082.47;;;18.53;50.10
12213;BME280;6169;44.158;22.788;2023-09-12T03:44:57;101085.38;;;17.81;52.50
12213;BME280;6169;44.158;22.788;2023-09-12T03:50:00;101093.06;;;17.38;53.83
12213;BME280;6169;44.158;22.788;2023-09-12T03:55:03;101091.97;;;18.16;51.15
12213;BME280;6169;44.158;22.788;2023-09-12T04:00:08;101102.16;;;18.00;51.80
12213;BME280;6169;44.158;22.788;2023-09-12T04:05:10;101099.66;;;18.24;50.89
12213;BME280;6169;44.158;22.788;2023-09-12T04:10:12;101096.38;;;18.12;50.67
12213;BME280;6169;44.158;22.788;2023-09-12T04:15:16;101099.16;;;17.55;53.10
12213;BME280;6169;44.158;22.788;2023-09-12T04:20:18;101068.28;;;17.12;53.12
12213;BME280;6169;44.158;22.788;2023-09-12T04:25:20;101105.16;;;18.14;51.36
12213;BME280;6169;44.158;22.788;2023-09-12T04:30:24;101101.34;;;17.89;51.35
12213;BME280;6169;44.158;22.788;2023-09-12T04:35:26;101107.53;;;17.13;53.89
12213;BME280;6169;44.158;22.788;2023-09-12T04:40:28;101102.84;;;16.98;55.61
12213;BME280;6169;44.158;22.788;2023-09-12T04:45:34;101101.88;;;17.45;54.02
12213;BME280;6169;44.158;22.788;2023-09-12T04:50:40;101116.75;;;18.00;52.41
12213;BME280;6169;44.158;22.788;2023-09-12T04:55:43;101106.19;;;17.15;55.23
12213;BME280;6169;44.158;22.788;2023-09-12T05:00:46;101115.06;;;17.48;54.72
12213;BME280;6169;44.158;22.788;2023-09-12T05:05:49;101115.34;;;17.62;54.58
12213;BME280;6169;44.158;22.788;2023-09-12T05:10:51;101126.38;;;17.67;54.34
12213;BME280;6169;44.158;22.788;2023-09-12T05:15:55;101119.47;;;18.16;52.88
12213;BME280;6169;44.158;22.788;2023-09-12T05:20:57;101144.50;;;18.19;53.27
12213;BME280;6169;44.158;22.788;2023-09-12T05:26:00;101143.13;;;17.86;54.72
12213;BME280;6169;44.158;22.788;2023-09-12T05:31:03;101141.97;;;18.43;53.66
12213;BME280;6169;44.158;22.788;2023-09-12T05:36:05;101138.72;;;18.16;55.42
12213;BME280;6169;44.158;22.788;2023-09-12T05:41:07;101138.47;;;18.07;56.41
12213;BME280;6169;44.158;22.788;2023-09-12T05:46:11;101147.25;;;18.14;56.87
12213;BME280;6169;44.158;22.788;2023-09-12T05:51:13;101141.78;;;17.99;58.35
12213;BME280;6169;44.158;22.788;2023-09-12T05:56:15;101141.50;;;17.95;57.98
12213;BME280;6169;44.158;22.788;2023-09-12T06:01:19;101133.50;;;17.89;57.40
12213;BME280;6169;44.158;22.788;2023-09-12T06:06:21;101143.28;;;18.66;55.43
12213;BME280;6169;44.158;22.788;2023-09-12T06:11:24;101137.91;;;17.74;58.53
12213;BME280;6169;44.158;22.788;2023-09-12T06:16:28;101141.47;;;19.11;54.18
12213;BME280;6169;44.158;22.788;2023-09-12T06:21:30;101141.03;;;19.38;53.92
12213;BME280;6169;44.158;22.788;2023-09-12T06:26:32;101151.53;;;19.31;54.76
12213;BME280;6169;44.158;22.788;2023-09-12T06:31:36;101150.19;;;19.24;54.78
12213;BME280;6169;44.158;22.788;2023-09-12T06:36:39;101156.09;;;19.56;54.37
12213;BME280;6169;44.158;22.788;2023-09-12T06:41:42;101152.28;;;19.87;55.38
12213;BME280;6169;44.158;22.788;2023-09-12T06:46:45;101159.19;;;20.18;54.19
12213;BME280;6169;44.158;22.788;2023-09-12T06:51:48;101160.53;;;20.50;53.59
12213;BME280;6169;44.158;22.788;2023-09-12T06:56:50;101163.72;;;20.62;53.84
12213;BME280;6169;44.158;22.788;2023-09-12T07:01:53;101164.25;;;20.88;52.77
12213;BME280;6169;44.158;22.788;2023-09-12T07:06:56;101164.06;;;20.80;53.68
12213;BME280;6169;44.158;22.788;2023-09-12T07:11:58;101176.88;;;21.56;51.70
12213;BME280;6169;44.158;22.788;2023-09-12T07:17:02;101173.59;;;21.73;51.96
12213;BME280;6169;44.158;22.788;2023-09-12T07:22:05;101178.47;;;21.95;48.91
12213;BME280;6169;44.158;22.788;2023-09-12T07:27:07;101189.50;;;21.81;52.19
12213;BME280;6169;44.158;22.788;2023-09-12T07:32:10;101184.13;;;22.23;52.71
12213;BME280;6169;44.158;22.788;2023-09-12T07:37:13;101188.38;;;21.82;54.59
12213;BME280;6169;44.158;22.788;2023-09-12T07:42:15;101187.22;;;22.02;53.53
12213;BME280;6169;44.158;22.788;2023-09-12T07:47:19;101192.13;;;22.24;53.66
12213;BME280;6169;44.158;22.788;2023-09-12T07:52:21;101186.13;;;22.64;51.08
12213;BME280;6169;44.158;22.788;2023-09-12T07:57:23;101186.63;;;22.52;48.64
12213;BME280;6169;44.158;22.788;2023-09-12T08:02:27;101180.69;;;23.14;47.50
12213;BME280;6169;44.158;22.788;2023-09-12T08:07:29;101179.50;;;23.43;46.25
12213;BME280;6169;44.158;22.788;2023-09-12T08:12:31;101188.25;;;23.36;44.14
12213;BME280;6169;44.158;22.788;2023-09-12T08:17:35;101173.41;;;23.04;44.61
12213;BME280;6169;44.158;22.788;2023-09-12T08:22:37;101177.34;;;23.39;43.07
12213;BME280;6169;44.158;22.788;2023-09-12T08:27:40;101179.28;;;23.53;43.63
12213;BME280;6169;44.158;22.788;2023-09-12T08:32:45;101177.53;;;23.79;42.30
12213;BME280;6169;44.158;22.788;2023-09-12T08:37:47;101174.94;;;23.83;39.74
12213;BME280;6169;44.158;22.788;2023-09-12T08:42:51;101166.06;;;23.95;39.32
12213;BME280;6169;44.158;22.788;2023-09-12T08:47:57;101153.44;;;24.82;38.14
12213;BME280;6169;44.158;22.788;2023-09-12T08:53:00;101153.09;;;24.84;34.69
12213;BME280;6169;44.158;22.788;2023-09-12T08:58:04;101154.44;;;25.12;31.86
12213;BME280;6169;44.158;22.788;2023-09-12T09:03:08;101155.28;;;25.13;32.76
12213;BME280;6169;44.158;22.788;2023-09-12T09:08:11;101153.44;;;24.82;31.89
12213;BME280;6169;44.158;22.788;2023-09-12T09:13:15;101156.34;;;24.68;33.68
12213;BME280;6169;44.158;22.788;2023-09-12T09:18:18;101097.25;;;24.54;34.80
12213;BME280;6169;44.158;22.788;2023-09-12T09:23:21;101144.91;;;24.79;34.70
12213;BME280;6169;44.158;22.788;2023-09-12T09:28:24;101147.47;;;25.67;33.06
12213;BME280;6169;44.158;22.788;2023-09-12T09:33:35;101136.19;;;25.81;32.29
12213;BME280;6169;44.158;22.788;2023-09-12T09:38:37;101135.31;;;26.45;32.09
12213;BME280;6169;44.158;22.788;2023-09-12T09:43:39;101126.47;;;24.91;33.86
12213;BME280;6169;44.158;22.788;2023-09-12T09:48:48;101121.72;;;25.96;32.54
12213;BME280;6169;44.158;22.788;2023-09-12T09:53:51;101126.13;;;26.83;30.10
12213;BME280;6169;44.158;22.788;2023-09-12T09:58:54;101120.19;;;27.14;30.08
12213;BME280;6169;44.158;22.788;2023-09-12T10:03:59;101122.78;;;27.19;30.05
12213;BME280;6169;44.158;22.788;2023-09-12T10:09:06;101110.50;;;26.90;30.68
12213;BME280;6169;44.158;22.788;2023-09-12T10:14:09;101108.06;;;27.52;30.24
12213;BME280;6169;44.158;22.788;2023-09-12T10:19:17;101105.69;;;27.42;29.25
12213;BME280;6169;44.158;22.788;2023-09-12T10:24:19;101097.16;;;27.59;29.42
12213;BME280;6169;44.158;22.788;2023-09-12T10:29:23;101098.16;;;27.75;28.82
12213;BME280;6169;44.158;22.788;2023-09-12T10:34:27;101095.78;;;27.65;30.11
12213;BME280;6169;44.158;22.788;2023-09-12T10:39:32;101080.78;;;28.28;28.64
12213;BME280;6169;44.158;22.788;2023-09-12T10:44:34;101079.78;;;27.99;28.52
12213;BME280;6169;44.158;22.788;2023-09-12T10:49:38;101078.22;;;27.65;29.00
12213;BME280;6169;44.158;22.788;2023-09-12T10:54:40;101083.00;;;28.71;28.07
12213;BME280;6169;44.158;22.788;2023-09-12T11:00:10;101077.63;;;28.41;27.99
12213;BME280;6169;44.158;22.788;2023-09-12T11:05:39;101071.22;;;28.16;28.01
12213;BME280;6169;44.158;22.788;2023-09-12T11:11:18;101068.13;;;29.07;27.38
12213;BME280;6169;44.158;22.788;2023-09-12T11:16:21;101069.47;;;29.26;25.70
12213;BME280;6169;44.158;22.788;2023-09-12T11:21:33;101067.50;;;28.74;26.46
12213;BME280;6169;44.158;22.788;2023-09-12T11:26:35;101055.69;;;29.49;25.75
12213;BME280;6169;44.158;22.788;2023-09-12T11:31:37;101055.28;;;29.34;26.01
12213;BME280;6169;44.158;22.788;2023-09-12T11:36:46;101042.47;;;29.62;24.89
12213;BME280;6169;44.158;22.788;2023-09-12T11:41:48;101034.09;;;29.05;25.64
12213;BME280;6169;44.158;22.788;2023-09-12T11:46:50;101036.47;;;29.47;25.87
12213;BME280;6169;44.158;22.788;2023-09-12T11:51:55;101021.53;;;29.87;25.00
12213;BME280;6169;44.158;22.788;2023-09-12T11:56:57;101002.16;;;30.14;25.07
12213;BME280;6169;44.158;22.788;2023-09-12T12:02:00;100997.28;;;29.63;24.68
12213;BME280;6169;44.158;22.788;2023-09-12T12:07:04;101007.59;;;29.59;25.74
12213;BME280;6169;44.158;22.788;2023-09-12T12:12:10;100999.28;;;30.10;24.79
12213;BME280;6169;44.158;22.788;2023-09-12T12:17:13;101001.78;;;29.99;24.79
12213;BME280;6169;44.158;22.788;2023-09-12T12:22:16;100996.28;;;30.03;24.79
12213;BME280;6169;44.158;22.788;2023-09-12T12:27:18;100990.69;;;29.87;23.36
12213;BME280;6169;44.158;22.788;2023-09-12T12:32:21;100992.06;;;30.44;24.36
12213;BME280;6169;44.158;22.788;2023-09-12T12:37:28;100976.59;;;30.70;24.44
12213;BME280;6169;44.158;22.788;2023-09-12T12:42:35;100978.47;;;30.82;23.67
12213;BME280;6169;44.158;22.788;2023-09-12T12:47:38;100987.84;;;30.70;23.61
12213;BME280;6169;44.158;22.788;2023-09-12T12:52:41;100975.09;;;30.37;23.66
12213;BME280;6169;44.158;22.788;2023-09-12T12:57:44;100972.81;;;30.43;23.60
12213;BME280;6169;44.158;22.788;2023-09-12T13:02:46;100963.31;;;30.67;23.28
12213;BME280;6169;44.158;22.788;2023-09-12T13:07:50;100946.63;;;30.19;24.08
12213;BME280;6169;44.158;22.788;2023-09-12T13:12:52;100960.53;;;30.32;23.02
12213;BME280;6169;44.158;22.788;2023-09-12T13:17:55;100949.50;;;30.58;23.99
12213;BME280;6169;44.158;22.788;2023-09-12T13:22:58;100953.94;;;31.18;23.17
12213;BME280;6169;44.158;22.788;2023-09-12T13:28:00;100939.09;;;30.59;23.54
12213;BME280;6169;44.158;22.788;2023-09-12T13:33:03;100948.84;;;30.84;23.09
12213;BME280;6169;44.158;22.788;2023-09-12T13:38:07;100948.03;;;30.84;23.16
12213;BME280;6169;44.158;22.788;2023-09-12T13:43:10;100942.34;;;31.42;22.78
12213;BME280;6169;44.158;22.788;2023-09-12T13:48:12;100947.50;;;31.17;22.97
12213;BME280;6169;44.158;22.788;2023-09-12T13:53:16;100943.34;;;31.30;22.73
12213;BME280;6169;44.158;22.788;2023-09-12T13:58:18;100947.81;;;31.12;22.63
12213;BME280;6169;44.158;22.788;2023-09-12T14:03:20;100927.72;;;30.90;22.92
12213;BME280;6169;44.158;22.788;2023-09-12T14:08:23;100936.56;;;31.12;22.35
12213;BME280;6169;44.158;22.788;2023-09-12T14:13:25;100938.72;;;31.42;21.61
12213;BME280;6169;44.158;22.788;2023-09-12T14:18:28;100935.16;;;31.68;21.80
12213;BME280;6169;44.158;22.788;2023-09-12T14:23:31;100927.00;;;31.59;21.44
12213;BME280;6169;44.158;22.788;2023-09-12T14:28:33;100926.19;;;31.35;22.07
12213;BME280;6169;44.158;22.788;2023-09-12T14:33:35;100915.44;;;31.91;22.02
12213;BME280;6169;44.158;22.788;2023-09-12T14:38:39;100908.31;;;31.47;21.03
12213;BME280;6169;44.158;22.788;2023-09-12T14:43:41;100909.88;;;31.68;21.56
12213;BME280;6169;44.158;22.788;2023-09-12T14:48:43;100908.75;;;31.72;20.98
12213;BME280;6169;44.158;22.788;2023-09-12T14:53:47;100911.06;;;31.67;21.16
12213;BME280;6169;44.158;22.788;2023-09-12T14:58:49;100916.13;;;31.57;21.37
12213;BME280;6169;44.158;22.788;2023-09-12T15:03:51;100909.38;;;31.62;20.98
12213;BME280;6169;44.158;22.788;2023-09-12T15:08:55;100904.13;;;31.38;21.10
12213;BME280;6169;44.158;22.788;2023-09-12T15:13:57;100905.38;;;31.40;21.32
12213;BME280;6169;44.158;22.788;2023-09-12T15:18:59;100907.44;;;31.20;21.46
12213;BME280;6169;44.158;22.788;2023-09-12T15:24:03;100899.22;;;31.31;21.93
12213;BME280;6169;44.158;22.788;2023-09-12T15:29:06;100895.47;;;30.61;22.07
12213;BME280;6169;44.158;22.788;2023-09-12T15:34:08;100896.94;;;30.75;22.46
12213;BME280;6169;44.158;22.788;2023-09-12T15:39:12;100903.72;;;30.54;22.73
12213;BME280;6169;44.158;22.788;2023-09-12T15:44:14;100890.28;;;30.44;23.19
12213;BME280;6169;44.158;22.788;2023-09-12T15:49:16;100893.53;;;30.46;23.39
12213;BME280;6169;44.158;22.788;2023-09-12T15:54:20;100886.66;;;30.24;24.60
12213;BME280;6169;44.158;22.788;2023-09-12T15:59:22;100890.06;;;29.98;24.49
12213;BME280;6169;44.158;22.788;2023-09-12T16:04:25;100884.50;;;29.82;25.64
12213;BME280;6169;44.158;22.788;2023-09-12T16:09:29;100878.00;;;29.62;29.00
12213;BME280;6169;44.158;22.788;2023-09-12T16:14:31;100876.88;;;28.87;31.16
12213;BME280;6169;44.158;22.788;2023-09-12T16:19:33;100880.91;;;28.62;32.22
12213;BME280;6169;44.158;22.788;2023-09-12T16:24:37;100883.38;;;28.23;33.18
12213;BME280;6169;44.158;22.788;2023-09-12T16:29:39;100880.38;;;27.91;34.00
12213;BME280;6169;44.158;22.788;2023-09-12T16:34:41;100879.34;;;27.59;33.90
12213;BME280;6169;44.158;22.788;2023-09-12T16:39:46;100876.59;;;27.13;35.73
12213;BME280;6169;44.158;22.788;2023-09-12T16:44:48;100872.72;;;26.73;36.17
12213;BME280;6169;44.158;22.788;2023-09-12T16:49:50;100870.31;;;26.71;35.26
12213;BME280;6169;44.158;22.788;2023-09-12T16:54:54;100882.22;;;26.38;35.08
12213;BME280;6169;44.158;22.788;2023-09-12T16:59:56;100845.63;;;25.68;37.66
12213;BME280;6169;44.158;22.788;2023-09-12T17:04:58;100890.09;;;26.15;36.74
12213;BME280;6169;44.158;22.788;2023-09-12T17:10:02;100889.19;;;25.73;35.76
12213;BME280;6169;44.158;22.788;2023-09-12T17:15:05;100887.41;;;25.30;36.82
12213;BME280;6169;44.158;22.788;2023-09-12T17:20:08;100895.94;;;25.16;36.79
12213;BME280;6169;44.158;22.788;2023-09-12T17:25:12;100896.91;;;25.11;36.83
12213;BME280;6169;44.158;22.788;2023-09-12T17:30:14;100886.69;;;24.77;37.78
12213;BME280;6169;44.158;22.788;2023-09-12T17:35:17;100908.72;;;24.56;38.28
12213;BME280;6169;44.158;22.788;2023-09-12T17:40:21;100912.16;;;24.27;38.19
12213;BME280;6169;44.158;22.788;2023-09-12T17:45:23;100923.06;;;24.06;39.29
12213;BME280;6169;44.158;22.788;2023-09-12T17:50:25;100925.34;;;24.04;39.23
12213;BME280;6169;44.158;22.788;2023-09-12T17:55:31;100938.44;;;24.12;38.64
12213;BME280;6169;44.158;22.788;2023-09-12T18:00:33;100934.34;;;23.61;39.60
12213;BME280;6169;44.158;22.788;2023-09-12T18:05:36;100940.53;;;23.58;40.09
12213;BME280;6169;44.158;22.788;2023-09-12T18:10:40;100951.31;;;23.37;40.17
12213;BME280;6169;44.158;22.788;2023-09-12T18:15:42;100951.22;;;23.20;40.83
12213;BME280;6169;44.158;22.788;2023-09-12T18:20:44;100943.59;;;23.03;40.88
12213;BME280;6169;44.158;22.788;2023-09-12T18:25:47;100952.78;;;23.12;40.67
12213;BME280;6169;44.158;22.788;2023-09-12T18:30:51;100952.59;;;23.08;40.97
12213;BME280;6169;44.158;22.788;2023-09-12T18:35:53;100958.88;;;22.78;41.85
12213;BME280;6169;44.158;22.788;2023-09-12T18:40:57;100962.38;;;22.33;43.16
12213;BME280;6169;44.158;22.788;2023-09-12T18:45:59;100967.28;;;22.22;44.08
12213;BME280;6169;44.158;22.788;2023-09-12T18:51:01;100970.56;;;22.11;44.89
12213;BME280;6169;44.158;22.788;2023-09-12T18:56:05;100976.91;;;21.97;45.20
12213;BME280;6169;44.158;22.788;2023-09-12T19:01:07;100973.25;;;22.80;43.35
12213;BME280;6169;44.158;22.788;2023-09-12T19:06:10;100975.34;;;22.97;42.23
12213;BME280;6169;44.158;22.788;2023-09-12T19:11:13;100983.78;;;22.41;43.67
12213;BME280;6169;44.158;22.788;2023-09-12T19:16:17;100986.25;;;22.43;43.80
12213;BME280;6169;44.158;22.788;2023-09-12T19:21:19;100991.88;;;22.52;43.68
12213;BME280;6169;44.158;22.788;2023-09-12T19:26:23;100987.59;;;22.45;43.82
12213;BME280;6169;44.158;22.788;2023-09-12T19:31:25;100993.88;;;22.23;43.95
12213;BME280;6169;44.158;22.788;2023-09-12T19:36:27;100992.69;;;21.83;45.06
12213;BME280;6169;44.158;22.788;2023-09-12T19:41:31;100995.59;;;21.78;44.86
12213;BME280;6169;44.158;22.788;2023-09-12T19:46:33;101000.56;;;21.29;45.61
12213;BME280;6169;44.158;22.788;2023-09-12T19:51:40;100997.63;;;21.72;44.05
12213;BME280;6169;44.158;22.788;2023-09-12T19:56:45;100988.31;;;21.49;44.76
12213;BME280;6169;44.158;22.788;2023-09-12T20:01:48;100991.34;;;21.01;45.21
12213;BME280;6169;44.158;22.788;2023-09-12T20:06:50;100994.00;;;21.25;44.23
12213;BME280;6169;44.158;22.788;2023-09-12T20:11:54;101004.66;;;20.99;44.17
12213;BME280;6169;44.158;22.788;2023-09-12T20:16:57;100999.59;;;21.20;44.12
12213;BME280;6169;44.158;22.788;2023-09-12T20:22:00;101007.50;;;21.27;44.28
12213;BME280;6169;44.158;22.788;2023-09-12T20:27:04;101009.63;;;21.16;44.27
12213;BME280;6169;44.158;22.788;2023-09-12T20:32:07;101016.47;;;21.70;43.16
12213;BME280;6169;44.158;22.788;2023-09-12T20:37:09;101015.59;;;21.04;43.49
12213;BME280;6169;44.158;22.788;2023-09-12T20:42:13;101014.25;;;21.21;44.06
12213;BME280;6169;44.158;22.788;2023-09-12T20:47:15;101019.28;;;21.00;44.72
12213;BME280;6169;44.158;22.788;2023-09-12T20:52:20;101020.69;;;21.16;43.30
12213;BME280;6169;44.158;22.788;2023-09-12T20:57:24;101027.38;;;20.96;44.11
12213;BME280;6169;44.158;22.788;2023-09-12T21:02:26;101028.03;;;20.88;44.96
12213;BME280;6169;44.158;22.788;2023-09-12T21:07:28;101026.22;;;20.97;43.91
12213;BME280;6169;44.158;22.788;2023-09-12T21:12:32;101025.75;;;21.28;43.56
12213;BME280;6169;44.158;22.788;2023-09-12T21:17:35;101024.22;;;21.35;43.33
12213;BME280;6169;44.158;22.788;2023-09-12T21:22:38;101026.19;;;21.35;43.15
12213;BME280;6169;44.158;22.788;2023-09-12T21:27:41;101030.63;;;20.98;43.67
12213;BME280;6169;44.158;22.788;2023-09-12T21:32:43;101040.53;;;20.80;44.62
12213;BME280;6169;44.158;22.788;2023-09-12T21:37:46;101011.03;;;20.76;43.95
12213;BME280;6169;44.158;22.788;2023-09-12T21:42:50;101033.44;;;20.74;44.69
12213;BME280;6169;44.158;22.788;2023-09-12T21:47:52;101028.63;;;20.42;44.72
12213;BME280;6169;44.158;22.788;2023-09-12T21:52:54;101029.94;;;20.68;44.16
12213;BME280;6169;44.158;22.788;2023-09-12T21:57:58;101032.75;;;19.91;45.79
12213;BME280;6169;44.158;22.788;2023-09-12T22:03:00;101039.56;;;20.28;45.12
12213;BME280;6169;44.158;22.788;2023-09-12T22:08:04;101047.88;;;19.99;46.53
12213;BME280;6169;44.158;22.788;2023-09-12T22:13:08;101039.00;;;19.78;46.22
12213;BME280;6169;44.158;22.788;2023-09-12T22:18:10;101043.81;;;20.63;45.10
12213;BME280;6169;44.158;22.788;2023-09-12T22:23:13;101039.72;;;20.80;44.23
12213;BME280;6169;44.158;22.788;2023-09-12T22:28:16;101048.38;;;20.73;44.44
12213;BME280;6169;44.158;22.788;2023-09-12T22:33:18;101051.31;;;19.86;45.85
12213;BME280;6169;44.158;22.788;2023-09-12T22:38:20;101054.16;;;19.46;47.71
12213;BME280;6169;44.158;22.788;2023-09-12T22:43:25;101053.72;;;20.45;45.74
12213;BME280;6169;44.158;22.788;2023-09-12T22:48:27;101050.53;;;20.57;45.40
12213;BME280;6169;44.158;22.788;2023-09-12T22:53:29;101045.78;;;20.39;45.63
12213;BME280;6169;44.158;22.788;2023-09-12T22:58:33;101039.41;;;20.62;45.34
12213;BME280;6169;44.158;22.788;2023-09-12T23:03:35;101038.94;;;20.07;46.57
12213;BME280;6169;44.158;22.788;2023-09-12T23:08:37;101044.50;;;19.78;47.47
12213;BME280;6169;44.158;22.788;2023-09-12T23:13:41;101040.41;;;19.99;47.06
12213;BME280;6169;44.158;22.788;2023-09-12T23:18:43;101048.06;;;19.49;48.05
12213;BME280;6169;44.158;22.788;2023-09-12T23:23:45;101043.53;;;19.24;48.96
12213;BME280;6169;44.158;22.788;2023-09-12T23:28:49;101047.69;;;19.61;48.44
12213;BME280;6169;44.158;22.788;2023-09-12T23:33:51;101042.22;;;19.56;48.41
12213;BME280;6169;44.158;22.788;2023-09-12T23:38:54;101050.44;;;19.61;48.58
12213;BME280;6169;44.158;22.788;2023-09-12T23:43:57;101057.59;;;19.62;48.67
12213;BME280;6169;44.158;22.788;2023-09-12T23:48:59;101053.50;;;20.18;47.00
12213;BME280;6169;44.158;22.788;2023-09-12T23:54:03;101057.28;;;19.98;47.71
12213;BME280;6169;44.158;22.788;2023-09-12T23:59:07;101044.97;;;19.56;48.32
